Hikosan Maru — JD3735 — position and weather

sailwx.info

Track history (hours):
 
Tides and Currents Weather Stations Pressure Air Temp Water Temp Dewpoint Dewpoint Depression Visibility Wind Speed Wind Dir Waves Ship Positions

Hikosan Maru

Last reported at 2018-Feb-18 06:48 UTC. Time now 2018-Feb-19 07:47 UTC.
Position N 33°15' E 132°01'.

Length 74 m; draft 4.4 m.

Type: Cargo ship. MMSI: 431005844.

Date/timePositionNaut miles runAvg speedWind from/ knotsBaromVisibWave heightAir tempDewpointWater temp
2018-Feb-18 06:48N 33°15' E 132°01'413.5
2018-Feb-18 06:29N 33°19' E 131°59'612.6
2018-Feb-18 05:59N 33°24' E 131°55'612.5
2018-Feb-18 05:30N 33°30' E 131°52'612.7
2018-Feb-18 05:00N 33°35' E 131°48'612.7
2018-Feb-18 04:30N 33°40' E 131°43'612.6
2018-Feb-18 04:00N 33°42' E 131°36'611.5
2018-Feb-18 03:30N 33°44' E 131°29'611.3
2018-Feb-18 03:00N 33°45' E 131°23'611.3
2018-Feb-18 02:30N 33°46' E 131°16'611.1
2018-Feb-18 02:00N 33°48' E 131°10'510.0
2018-Feb-18 01:30N 33°49' E 131°04'3 5.9
2018-Feb-18 00:58N 33°48' E 130°60'0 0.0
2018-Feb-18 00:28N 33°48' E 130°60'0 0.0
2018-Feb-17 23:58N 33°48' E 130°60'0 0.0
2018-Feb-17 23:28N 33°48' E 130°60'0 0.0
2018-Feb-17 22:58N 33°48' E 130°60'0 0.0
2018-Feb-17 22:28N 33°48' E 130°60'0 0.0
2018-Feb-17 21:58N 33°48' E 130°60'0 0.0
2018-Feb-17 21:28N 33°48' E 130°60'0 0.0
2018-Feb-17 20:58N 33°48' E 130°60'0 0.0
2018-Feb-17 20:28N 33°48' E 130°60'0 0.0
2018-Feb-17 19:58N 33°48' E 130°60'0 0.0
2018-Feb-17 19:28N 33°48' E 130°60'0 0.0
2018-Feb-17 18:58N 33°48' E 130°60'0 0.0
2018-Feb-17 18:28N 33°48' E 130°60'0 0.0
2018-Feb-17 17:58N 33°48' E 130°60'0 0.0
2018-Feb-17 17:28N 33°48' E 130°60'0 0.0
2018-Feb-17 16:52N 33°48' E 130°60'0 0.0
2018-Feb-17 16:28N 33°48' E 130°60'0 0.0
2018-Feb-17 15:46N 33°48' E 130°60'0 0.0
2018-Feb-17 15:22N 33°48' E 130°60'0 0.0
2018-Feb-17 14:58N 33°48' E 130°60'0 0.0
2018-Feb-17 14:28N 33°48' E 130°60'0 0.0
2018-Feb-17 13:58N 33°48' E 130°60'0 0.0
2018-Feb-17 13:22N 33°48' E 130°60'0 0.0
2018-Feb-17 12:58N 33°48' E 130°60'0 0.0
2018-Feb-17 12:28N 33°48' E 130°60'0 0.0
2018-Feb-17 11:58N 33°48' E 130°60'0 0.0
2018-Feb-17 11:28N 33°48' E 130°60'0 0.0
2018-Feb-17 10:52N 33°48' E 130°60'0 0.0
2018-Feb-17 10:25N 33°48' E 130°60'0 0.0
2018-Feb-17 09:58N 33°48' E 130°60'0 0.0
2018-Feb-17 09:28N 33°48' E 130°60'0 0.0
2018-Feb-17 08:58N 33°48' E 130°60'0 0.0
2018-Feb-17 08:28N 33°48' E 130°60'0 0.0
2018-Feb-17 07:58N 33°48' E 130°60'0 1.0
2018-Feb-17 07:30N 33°48' E 130°59'0 0.0
2018-Feb-17 06:59N 33°48' E 130°59'0 0.0
2018-Feb-17 06:26N 33°48' E 130°59'0 0.0
2018-Feb-17 05:56N 33°48' E 130°59'0 0.0
2018-Feb-17 05:26N 33°48' E 130°59'0 0.0
2018-Feb-17 02:29N 33°48' E 130°59'2 4.1
2018-Feb-17 02:00N 33°48' E 131°02'5 9.7
2018-Feb-17 01:30N 33°48' E 131°08'2 3.2
2018-Feb-17 01:00N 33°47' E 131°09'1 1.7
2018-Feb-17 00:30N 33°48' E 131°08'510.9
2018-Feb-17 00:00N 33°47' E 131°15'611.4
2018-Feb-16 23:30N 33°45' E 131°21'611.5
2018-Feb-16 23:01N 33°44' E 131°28'612.0
2018-Feb-16 22:30N 33°43' E 131°35'612.4
2018-Feb-16 22:00N 33°41' E 131°42'611.9
2018-Feb-16 21:30N 33°36' E 131°47'611.7
2018-Feb-16 21:00N 33°32' E 131°51'611.5
2018-Feb-16 20:30N 33°26' E 131°54'611.4
2018-Feb-16 20:00N 33°21' E 131°58'610.2
2018-Feb-16 19:26N 33°16' E 132°00'1 0.0
2018-Feb-15 06:21N 33°15' E 132°01'512.5
2018-Feb-15 05:59N 33°19' E 131°59'612.1
2018-Feb-15 05:30N 33°24' E 131°56'612.4
2018-Feb-15 05:01N 33°30' E 131°52'612.8
2018-Feb-15 04:30N 33°35' E 131°48'612.6
2018-Feb-15 04:01N 33°40' E 131°43'612.6
2018-Feb-15 03:31N 33°42' E 131°36'611.7
2018-Feb-15 03:01N 33°44' E 131°30'611.7
2018-Feb-15 02:30N 33°45' E 131°23'611.4
2018-Feb-15 02:00N 33°46' E 131°16'511.1
2018-Feb-15 01:31N 33°47' E 131°09'4 7.2
2018-Feb-15 01:01N 33°48' E 131°05'0 0.1
2018-Feb-15 00:30N 33°48' E 131°05'0 0.0
2018-Feb-15 00:00N 33°48' E 131°05'0 0.1
2018-Feb-14 23:30N 33°48' E 131°05'0 0.0
2018-Feb-14 22:57N 33°48' E 131°05'0 0.0
2018-Feb-14 22:30N 33°48' E 131°05'0 0.0
2018-Feb-14 22:00N 33°48' E 131°05'0 0.0
2018-Feb-14 21:30N 33°48' E 131°05'0 0.0
2018-Feb-14 21:00N 33°48' E 131°05'0 0.1
2018-Feb-14 20:30N 33°48' E 131°05'0 0.0
2018-Feb-14 19:57N 33°48' E 131°05'0 0.0
2018-Feb-14 19:27N 33°48' E 131°05'0 0.0
2018-Feb-14 19:00N 33°48' E 131°05'0 0.0
2018-Feb-14 18:30N 33°48' E 131°05'0 0.0
2018-Feb-14 18:00N 33°48' E 131°05'0 0.0
2018-Feb-14 17:30N 33°48' E 131°05'0 0.0
2018-Feb-14 17:00N 33°48' E 131°05'0 0.0
2018-Feb-14 16:27N 33°48' E 131°05'0 0.0
2018-Feb-14 15:57N 33°48' E 131°05'0 0.0
2018-Feb-14 15:30N 33°48' E 131°05'0 0.0
2018-Feb-14 15:00N 33°48' E 131°05'0 0.0
2018-Feb-14 14:30N 33°48' E 131°05'0 0.0
2018-Feb-14 14:00N 33°48' E 131°05'0 0.0
2018-Feb-14 13:30N 33°48' E 131°05'0 0.0
2018-Feb-14 13:00N 33°48' E 131°05'0 0.1
2018-Feb-14 12:27N 33°48' E 131°05'2 5.4
2018-Feb-14 12:00N 33°47' E 131°08'610.8
2018-Feb-14 11:29N 33°46' E 131°15'511.1
2018-Feb-14 11:00N 33°45' E 131°21'611.4
2018-Feb-14 10:30N 33°44' E 131°28'611.7
2018-Feb-14 10:00N 33°43' E 131°34'611.9
2018-Feb-14 09:30N 33°41' E 131°41'2 3.3
2018-Feb-14 09:00N 33°39' E 131°42'5 9.9
2018-Feb-14 08:30N 33°42' E 131°37'510.0
2018-Feb-14 08:00N 33°43' E 131°31'510.4
2018-Feb-14 07:30N 33°45' E 131°25'510.7
2018-Feb-14 07:00N 33°46' E 131°19'510.8
2018-Feb-14 06:30N 33°47' E 131°13'510.8
2018-Feb-14 06:00N 33°48' E 131°06'5 9.9
2018-Feb-14 05:30N 33°48' E 131°00'1 1.2
2018-Feb-14 04:56N 33°48' E 130°59'0 0.0
2018-Feb-14 00:08N 33°48' E 130°59'0 2.7
2018-Feb-14 00:00N 33°48' E 130°60'5 9.2
2018-Feb-13 23:30N 33°48' E 131°05'611.8
2018-Feb-13 23:00N 33°47' E 131°12'611.9
2018-Feb-13 22:30N 33°46' E 131°19'612.1
2018-Feb-13 22:00N 33°44' E 131°26'612.1
2018-Feb-13 21:30N 33°43' E 131°33'612.7
2018-Feb-13 21:00N 33°41' E 131°41'612.6
2018-Feb-13 20:30N 33°37' E 131°46'612.8
2018-Feb-13 20:00N 33°32' E 131°51'612.4
2018-Feb-13 19:30N 33°26' E 131°54'612.6
2018-Feb-13 19:00N 33°21' E 131°58'1211.6
2018-Feb-13 18:00N 33°11' E 132°06'0 0.0
2018-Feb-12 11:22N 33°11' E 132°06'811.6
2018-Feb-12 10:41N 33°18' E 131°60'211.1
2018-Feb-12 10:31N 33°19' E 131°59'610.8
2018-Feb-12 09:59N 33°24' E 131°55'610.9
2018-Feb-12 09:23N 33°30' E 131°51'510.8
2018-Feb-12 08:57N 33°34' E 131°48'510.6
2018-Feb-12 08:30N 33°38' E 131°45'510.8
2018-Feb-12 08:00N 33°41' E 131°40'510.8
2018-Feb-12 07:30N 33°43' E 131°34'511.1
2018-Feb-12 07:01N 33°45' E 131°28'611.1
2018-Feb-12 06:30N 33°46' E 131°21'611.1
2018-Feb-12 06:00N 33°49' E 131°15'611.3
2018-Feb-12 05:30N 33°52' E 131°10'611.3
2018-Feb-12 05:01N 33°56' E 131°04'510.7
2018-Feb-12 04:30N 33°58' E 130°59'510.8
2018-Feb-12 04:00N 33°54' E 130°54'4 7.8
2018-Feb-12 03:29N 33°54' E 130°49'4 7.4
2018-Feb-12 02:59N 33°52' E 130°45'0 0.0
2018-Feb-12 02:29N 33°52' E 130°45'0 0.0
2018-Feb-12 01:59N 33°52' E 130°45'0 0.0
2018-Feb-12 01:29N 33°52' E 130°45'0 0.0
2018-Feb-12 00:59N 33°52' E 130°45'0 0.0
2018-Feb-12 00:29N 33°52' E 130°45'0 0.0
2018-Feb-11 23:59N 33°52' E 130°45'0 0.5
2018-Feb-11 23:30N 33°53' E 130°45'3 6.8
2018-Feb-11 23:01N 33°54' E 130°49'4 7.9
2018-Feb-11 22:30N 33°55' E 130°53'5 9.7
2018-Feb-11 22:00N 33°58' E 130°58'5 9.8
2018-Feb-11 21:30N 33°57' E 131°04'5 9.4
2018-Feb-11 21:00N 33°52' E 131°04'1 2.3
2018-Feb-11 20:28N 33°51' E 131°04'0 0.0
2018-Feb-11 19:58N 33°51' E 131°04'0 0.1
2018-Feb-11 19:28N 33°51' E 131°04'0 0.0
2018-Feb-11 18:58N 33°51' E 131°04'0 0.0
2018-Feb-11 18:28N 33°51' E 131°04'0 0.0
2018-Feb-11 17:58N 33°51' E 131°04'0 0.1
2018-Feb-11 17:28N 33°51' E 131°04'0 0.0
2018-Feb-11 16:58N 33°51' E 131°04'0 0.1
2018-Feb-11 16:30N 33°51' E 131°04'3 5.5
2018-Feb-11 16:01N 33°48' E 131°02'2 2.1
2018-Feb-11 14:59N 33°48' E 130°59'0 0.0
2018-Feb-11 13:26N 33°48' E 130°60'0 0.7
2018-Feb-11 12:58N 33°48' E 130°60'0 0.0
2018-Feb-11 12:25N 33°48' E 130°60'0 0.0
2018-Feb-11 11:58N 33°48' E 130°60'0 0.0
2018-Feb-11 11:28N 33°48' E 130°60'0 0.0
2018-Feb-11 10:58N 33°48' E 130°60'0 0.0
2018-Feb-11 10:28N 33°48' E 130°60'0 0.0
2018-Feb-11 09:55N 33°48' E 130°60'0 0.0
2018-Feb-11 09:28N 33°48' E 130°60'0 0.0
2018-Feb-11 08:55N 33°48' E 130°60'0 0.0
2018-Feb-11 08:28N 33°48' E 130°60'0 0.0
2018-Feb-11 07:58N 33°48' E 130°60'0 0.0
2018-Feb-11 07:28N 33°48' E 130°60'0 0.0
2018-Feb-11 06:58N 33°48' E 130°60'0 0.0
2018-Feb-11 06:28N 33°48' E 130°60'0 0.1
2018-Feb-11 05:58N 33°48' E 130°60'2 4.2
2018-Feb-11 05:30N 33°48' E 131°02'510.0
2018-Feb-11 05:00N 33°48' E 131°08'510.3
2018-Feb-11 04:30N 33°46' E 131°14'510.3
2018-Feb-11 04:00N 33°46' E 131°20'510.0
2018-Feb-11 03:30N 33°45' E 131°26'5 9.9
2018-Feb-11 03:00N 33°45' E 131°32'510.2
2018-Feb-11 02:30N 33°46' E 131°38'5 9.9
2018-Feb-11 02:00N 33°47' E 131°44'5 9.7
2018-Feb-11 01:30N 33°46' E 131°50'5 9.8
2018-Feb-11 01:00N 33°45' E 131°56'510.2
2018-Feb-11 00:30N 33°46' E 132°02'611.0
2018-Feb-10 23:57N 33°48' E 132°08'610.9
2018-Feb-10 23:25N 33°50' E 132°15'510.7
2018-Feb-10 22:57N 33°50' E 132°21'610.8
2018-Feb-10 22:24N 33°53' E 132°27'510.5
2018-Feb-10 21:55N 33°57' E 132°32'410.3
2018-Feb-10 21:30N 33°60' E 132°36'510.6
2018-Feb-10 21:00N 34°03' E 132°41'73 9.6
2018-Feb-10 13:29N 34°27' E 134°04'8 9.5
2018-Feb-10 12:37N 34°25' E 134°13'2 9.8
2018-Feb-10 12:26N 34°24' E 134°15'510.5
2018-Feb-10 11:57N 34°25' E 134°21'510.9
2018-Feb-10 11:30N 34°27' E 134°27'611.3
2018-Feb-10 11:00N 34°29' E 134°33'611.3
2018-Feb-10 10:30N 34°31' E 134°39'611.6
2018-Feb-10 10:00N 34°34' E 134°46'612.1
2018-Feb-10 09:30N 34°36' E 134°53'612.4
2018-Feb-10 09:00N 34°38' E 134°60'510.7
2018-Feb-10 08:30N 34°34' E 135°05'611.1
2018-Feb-10 08:00N 34°29' E 135°03'611.1
2018-Feb-10 07:30N 34°24' E 135°01'611.1
2018-Feb-10 07:00N 34°18' E 134°59'510.5
2018-Feb-10 06:30N 34°13' E 134°58'510.4
2018-Feb-10 06:00N 34°08' E 134°55'510.6
2018-Feb-10 05:30N 34°04' E 134°52'510.3
2018-Feb-10 05:00N 33°60' E 134°48'7 0.3
2018-Feb-09 08:00N 34°06' E 134°52'611.5
2018-Feb-09 07:30N 34°11' E 134°56'611.5
2018-Feb-09 07:00N 34°16' E 134°59'611.3
2018-Feb-09 06:30N 34°22' E 135°00'611.6
2018-Feb-09 06:00N 34°26' E 135°06'611.7
2018-Feb-09 05:30N 34°30' E 135°11'611.6
2018-Feb-09 05:00N 34°34' E 135°15'510.7
2018-Feb-09 04:30N 34°39' E 135°18'4 7.7
2018-Feb-09 04:00N 34°42' E 135°16'1 0.2
2018-Feb-08 22:30N 34°42' E 135°18'3 6.8
2018-Feb-08 22:00N 34°39' E 135°19'0 0.0
2018-Feb-08 20:00N 34°39' E 135°19'0 0.0
2018-Feb-08 19:30N 34°39' E 135°19'0 0.0
2018-Feb-08 19:00N 34°39' E 135°19'0 0.0
2018-Feb-08 17:30N 34°39' E 135°19'0 0.0
2018-Feb-08 15:30N 34°39' E 135°19'0 0.0
2018-Feb-08 15:00N 34°39' E 135°19'0 0.0
2018-Feb-08 14:30N 34°39' E 135°19'0 0.0
2018-Feb-08 14:00N 34°39' E 135°19'0 0.0
2018-Feb-08 13:30N 34°39' E 135°19'0 0.0
2018-Feb-08 11:30N 34°39' E 135°19'0 0.0
2018-Feb-08 11:00N 34°39' E 135°19'0 0.0
2018-Feb-08 10:00N 34°39' E 135°19'1 1.3
2018-Feb-08 09:00N 34°39' E 135°21'  
Track history (hours):
 
Tides and Currents Weather Stations Pressure Air Temp Water Temp Dewpoint Dewpoint Depression Visibility Wind Speed Wind Dir Waves Ship Positions

Hikosan Maru

Last reported at 2018-Feb-18 06:48 UTC. Time now 2018-Feb-19 07:47 UTC.
Position N 33°15' E 132°01'.

Length 74 m; draft 4.4 m.

Type: Cargo ship. MMSI: 431005844.

Date/timePositionNaut miles runAvg speedWind from/ knotsBaromVisibWave heightAir tempDewpointWater temp
2018-Feb-18 06:48N 33°15' E 132°01'413.5
2018-Feb-18 06:29N 33°19' E 131°59'612.6
2018-Feb-18 05:59N 33°24' E 131°55'612.5
2018-Feb-18 05:30N 33°30' E 131°52'612.7
2018-Feb-18 05:00N 33°35' E 131°48'612.7
2018-Feb-18 04:30N 33°40' E 131°43'612.6
2018-Feb-18 04:00N 33°42' E 131°36'611.5
2018-Feb-18 03:30N 33°44' E 131°29'611.3
2018-Feb-18 03:00N 33°45' E 131°23'611.3
2018-Feb-18 02:30N 33°46' E 131°16'611.1
2018-Feb-18 02:00N 33°48' E 131°10'510.0
2018-Feb-18 01:30N 33°49' E 131°04'3 5.9
2018-Feb-18 00:58N 33°48' E 130°60'0 0.0
2018-Feb-18 00:28N 33°48' E 130°60'0 0.0
2018-Feb-17 23:58N 33°48' E 130°60'0 0.0
2018-Feb-17 23:28N 33°48' E 130°60'0 0.0
2018-Feb-17 22:58N 33°48' E 130°60'0 0.0
2018-Feb-17 22:28N 33°48' E 130°60'0 0.0
2018-Feb-17 21:58N 33°48' E 130°60'0 0.0
2018-Feb-17 21:28N 33°48' E 130°60'0 0.0
2018-Feb-17 20:58N 33°48' E 130°60'0 0.0
2018-Feb-17 20:28N 33°48' E 130°60'0 0.0
2018-Feb-17 19:58N 33°48' E 130°60'0 0.0
2018-Feb-17 19:28N 33°48' E 130°60'0 0.0
2018-Feb-17 18:58N 33°48' E 130°60'0 0.0
2018-Feb-17 18:28N 33°48' E 130°60'0 0.0
2018-Feb-17 17:58N 33°48' E 130°60'0 0.0
2018-Feb-17 17:28N 33°48' E 130°60'0 0.0
2018-Feb-17 16:52N 33°48' E 130°60'0 0.0
2018-Feb-17 16:28N 33°48' E 130°60'0 0.0
2018-Feb-17 15:46N 33°48' E 130°60'0 0.0
2018-Feb-17 15:22N 33°48' E 130°60'0 0.0
2018-Feb-17 14:58N 33°48' E 130°60'0 0.0
2018-Feb-17 14:28N 33°48' E 130°60'0 0.0
2018-Feb-17 13:58N 33°48' E 130°60'0 0.0
2018-Feb-17 13:22N 33°48' E 130°60'0 0.0
2018-Feb-17 12:58N 33°48' E 130°60'0 0.0
2018-Feb-17 12:28N 33°48' E 130°60'0 0.0
2018-Feb-17 11:58N 33°48' E 130°60'0 0.0
2018-Feb-17 11:28N 33°48' E 130°60'0 0.0
2018-Feb-17 10:52N 33°48' E 130°60'0 0.0
2018-Feb-17 10:25N 33°48' E 130°60'0 0.0
2018-Feb-17 09:58N 33°48' E 130°60'0 0.0
2018-Feb-17 09:28N 33°48' E 130°60'0 0.0
2018-Feb-17 08:58N 33°48' E 130°60'0 0.0
2018-Feb-17 08:28N 33°48' E 130°60'0 0.0
2018-Feb-17 07:58N 33°48' E 130°60'0 1.0
2018-Feb-17 07:30N 33°48' E 130°59'0 0.0
2018-Feb-17 06:59N 33°48' E 130°59'0 0.0
2018-Feb-17 06:26N 33°48' E 130°59'0 0.0
2018-Feb-17 05:56N 33°48' E 130°59'0 0.0
2018-Feb-17 05:26N 33°48' E 130°59'0 0.0
2018-Feb-17 02:29N 33°48' E 130°59'2 4.1
2018-Feb-17 02:00N 33°48' E 131°02'5 9.7
2018-Feb-17 01:30N 33°48' E 131°08'2 3.2
2018-Feb-17 01:00N 33°47' E 131°09'1 1.7
2018-Feb-17 00:30N 33°48' E 131°08'510.9
2018-Feb-17 00:00N 33°47' E 131°15'611.4
2018-Feb-16 23:30N 33°45' E 131°21'611.5
2018-Feb-16 23:01N 33°44' E 131°28'612.0
2018-Feb-16 22:30N 33°43' E 131°35'612.4
2018-Feb-16 22:00N 33°41' E 131°42'611.9
2018-Feb-16 21:30N 33°36' E 131°47'611.7
2018-Feb-16 21:00N 33°32' E 131°51'611.5
2018-Feb-16 20:30N 33°26' E 131°54'611.4
2018-Feb-16 20:00N 33°21' E 131°58'610.2
2018-Feb-16 19:26N 33°16' E 132°00'1 0.0
2018-Feb-15 06:21N 33°15' E 132°01'512.5
2018-Feb-15 05:59N 33°19' E 131°59'612.1
2018-Feb-15 05:30N 33°24' E 131°56'612.4
2018-Feb-15 05:01N 33°30' E 131°52'612.8
2018-Feb-15 04:30N 33°35' E 131°48'612.6
2018-Feb-15 04:01N 33°40' E 131°43'612.6
2018-Feb-15 03:31N 33°42' E 131°36'611.7
2018-Feb-15 03:01N 33°44' E 131°30'611.7
2018-Feb-15 02:30N 33°45' E 131°23'611.4
2018-Feb-15 02:00N 33°46' E 131°16'511.1
2018-Feb-15 01:31N 33°47' E 131°09'4 7.2
2018-Feb-15 01:01N 33°48' E 131°05'0 0.1
2018-Feb-15 00:30N 33°48' E 131°05'0 0.0
2018-Feb-15 00:00N 33°48' E 131°05'0 0.1
2018-Feb-14 23:30N 33°48' E 131°05'0 0.0
2018-Feb-14 22:57N 33°48' E 131°05'0 0.0
2018-Feb-14 22:30N 33°48' E 131°05'0 0.0
2018-Feb-14 22:00N 33°48' E 131°05'0 0.0
2018-Feb-14 21:30N 33°48' E 131°05'0 0.0
2018-Feb-14 21:00N 33°48' E 131°05'0 0.1
2018-Feb-14 20:30N 33°48' E 131°05'0 0.0
2018-Feb-14 19:57N 33°48' E 131°05'0 0.0
2018-Feb-14 19:27N 33°48' E 131°05'0 0.0
2018-Feb-14 19:00N 33°48' E 131°05'0 0.0
2018-Feb-14 18:30N 33°48' E 131°05'0 0.0
2018-Feb-14 18:00N 33°48' E 131°05'0 0.0
2018-Feb-14 17:30N 33°48' E 131°05'0 0.0
2018-Feb-14 17:00N 33°48' E 131°05'0 0.0
2018-Feb-14 16:27N 33°48' E 131°05'0 0.0
2018-Feb-14 15:57N 33°48' E 131°05'0 0.0
2018-Feb-14 15:30N 33°48' E 131°05'0 0.0
2018-Feb-14 15:00N 33°48' E 131°05'0 0.0
2018-Feb-14 14:30N 33°48' E 131°05'0 0.0
2018-Feb-14 14:00N 33°48' E 131°05'0 0.0
2018-Feb-14 13:30N 33°48' E 131°05'0 0.0
2018-Feb-14 13:00N 33°48' E 131°05'0 0.1
2018-Feb-14 12:27N 33°48' E 131°05'2 5.4
2018-Feb-14 12:00N 33°47' E 131°08'610.8
2018-Feb-14 11:29N 33°46' E 131°15'511.1
2018-Feb-14 11:00N 33°45' E 131°21'611.4
2018-Feb-14 10:30N 33°44' E 131°28'611.7
2018-Feb-14 10:00N 33°43' E 131°34'611.9
2018-Feb-14 09:30N 33°41' E 131°41'2 3.3
2018-Feb-14 09:00N 33°39' E 131°42'5 9.9
2018-Feb-14 08:30N 33°42' E 131°37'510.0
2018-Feb-14 08:00N 33°43' E 131°31'510.4
2018-Feb-14 07:30N 33°45' E 131°25'510.7
2018-Feb-14 07:00N 33°46' E 131°19'510.8
2018-Feb-14 06:30N 33°47' E 131°13'510.8
2018-Feb-14 06:00N 33°48' E 131°06'5 9.9
2018-Feb-14 05:30N 33°48' E 131°00'1 1.2
2018-Feb-14 04:56N 33°48' E 130°59'0 0.0
2018-Feb-14 00:08N 33°48' E 130°59'0 2.7
2018-Feb-14 00:00N 33°48' E 130°60'5 9.2
2018-Feb-13 23:30N 33°48' E 131°05'611.8
2018-Feb-13 23:00N 33°47' E 131°12'611.9
2018-Feb-13 22:30N 33°46' E 131°19'612.1
2018-Feb-13 22:00N 33°44' E 131°26'612.1
2018-Feb-13 21:30N 33°43' E 131°33'612.7
2018-Feb-13 21:00N 33°41' E 131°41'612.6
2018-Feb-13 20:30N 33°37' E 131°46'612.8
2018-Feb-13 20:00N 33°32' E 131°51'612.4
2018-Feb-13 19:30N 33°26' E 131°54'612.6
2018-Feb-13 19:00N 33°21' E 131°58'1211.6
2018-Feb-13 18:00N 33°11' E 132°06'0 0.0
2018-Feb-12 11:22N 33°11' E 132°06'811.6
2018-Feb-12 10:41N 33°18' E 131°60'211.1
2018-Feb-12 10:31N 33°19' E 131°59'610.8
2018-Feb-12 09:59N 33°24' E 131°55'610.9
2018-Feb-12 09:23N 33°30' E 131°51'510.8
2018-Feb-12 08:57N 33°34' E 131°48'510.6
2018-Feb-12 08:30N 33°38' E 131°45'510.8
2018-Feb-12 08:00N 33°41' E 131°40'510.8
2018-Feb-12 07:30N 33°43' E 131°34'511.1
2018-Feb-12 07:01N 33°45' E 131°28'611.1
2018-Feb-12 06:30N 33°46' E 131°21'611.1
2018-Feb-12 06:00N 33°49' E 131°15'611.3
2018-Feb-12 05:30N 33°52' E 131°10'611.3
2018-Feb-12 05:01N 33°56' E 131°04'510.7
2018-Feb-12 04:30N 33°58' E 130°59'510.8
2018-Feb-12 04:00N 33°54' E 130°54'4 7.8
2018-Feb-12 03:29N 33°54' E 130°49'4 7.4
2018-Feb-12 02:59N 33°52' E 130°45'0 0.0
2018-Feb-12 02:29N 33°52' E 130°45'0 0.0
2018-Feb-12 01:59N 33°52' E 130°45'0 0.0
2018-Feb-12 01:29N 33°52' E 130°45'0 0.0
2018-Feb-12 00:59N 33°52' E 130°45'0 0.0
2018-Feb-12 00:29N 33°52' E 130°45'0 0.0
2018-Feb-11 23:59N 33°52' E 130°45'0 0.5
2018-Feb-11 23:30N 33°53' E 130°45'3 6.8
2018-Feb-11 23:01N 33°54' E 130°49'4 7.9
2018-Feb-11 22:30N 33°55' E 130°53'5 9.7
2018-Feb-11 22:00N 33°58' E 130°58'5 9.8
2018-Feb-11 21:30N 33°57' E 131°04'5 9.4
2018-Feb-11 21:00N 33°52' E 131°04'1 2.3
2018-Feb-11 20:28N 33°51' E 131°04'0 0.0
2018-Feb-11 19:58N 33°51' E 131°04'0 0.1
2018-Feb-11 19:28N 33°51' E 131°04'0 0.0
2018-Feb-11 18:58N 33°51' E 131°04'0 0.0
2018-Feb-11 18:28N 33°51' E 131°04'0 0.0
2018-Feb-11 17:58N 33°51' E 131°04'0 0.1
2018-Feb-11 17:28N 33°51' E 131°04'0 0.0
2018-Feb-11 16:58N 33°51' E 131°04'0 0.1
2018-Feb-11 16:30N 33°51' E 131°04'3 5.5
2018-Feb-11 16:01N 33°48' E 131°02'2 2.1
2018-Feb-11 14:59N 33°48' E 130°59'0 0.0
2018-Feb-11 13:26N 33°48' E 130°60'0 0.7
2018-Feb-11 12:58N 33°48' E 130°60'0 0.0
2018-Feb-11 12:25N 33°48' E 130°60'0 0.0
2018-Feb-11 11:58N 33°48' E 130°60'0 0.0
2018-Feb-11 11:28N 33°48' E 130°60'0 0.0
2018-Feb-11 10:58N 33°48' E 130°60'0 0.0
2018-Feb-11 10:28N 33°48' E 130°60'0 0.0
2018-Feb-11 09:55N 33°48' E 130°60'0 0.0
2018-Feb-11 09:28N 33°48' E 130°60'0 0.0
2018-Feb-11 08:55N 33°48' E 130°60'0 0.0
2018-Feb-11 08:28N 33°48' E 130°60'0 0.0
2018-Feb-11 07:58N 33°48' E 130°60'0 0.0
2018-Feb-11 07:28N 33°48' E 130°60'0 0.0
2018-Feb-11 06:58N 33°48' E 130°60'0 0.0
2018-Feb-11 06:28N 33°48' E 130°60'0 0.1
2018-Feb-11 05:58N 33°48' E 130°60'2 4.2
2018-Feb-11 05:30N 33°48' E 131°02'510.0
2018-Feb-11 05:00N 33°48' E 131°08'510.3
2018-Feb-11 04:30N 33°46' E 131°14'510.3
2018-Feb-11 04:00N 33°46' E 131°20'510.0
2018-Feb-11 03:30N 33°45' E 131°26'5 9.9
2018-Feb-11 03:00N 33°45' E 131°32'510.2
2018-Feb-11 02:30N 33°46' E 131°38'5 9.9
2018-Feb-11 02:00N 33°47' E 131°44'5 9.7
2018-Feb-11 01:30N 33°46' E 131°50'5 9.8
2018-Feb-11 01:00N 33°45' E 131°56'510.2
2018-Feb-11 00:30N 33°46' E 132°02'611.0
2018-Feb-10 23:57N 33°48' E 132°08'610.9
2018-Feb-10 23:25N 33°50' E 132°15'510.7
2018-Feb-10 22:57N 33°50' E 132°21'610.8
2018-Feb-10 22:24N 33°53' E 132°27'510.5
2018-Feb-10 21:55N 33°57' E 132°32'410.3
2018-Feb-10 21:30N 33°60' E 132°36'510.6
2018-Feb-10 21:00N 34°03' E 132°41'73 9.6
2018-Feb-10 13:29N 34°27' E 134°04'8 9.5
2018-Feb-10 12:37N 34°25' E 134°13'2 9.8
2018-Feb-10 12:26N 34°24' E 134°15'510.5
2018-Feb-10 11:57N 34°25' E 134°21'510.9
2018-Feb-10 11:30N 34°27' E 134°27'611.3
2018-Feb-10 11:00N 34°29' E 134°33'611.3
2018-Feb-10 10:30N 34°31' E 134°39'611.6
2018-Feb-10 10:00N 34°34' E 134°46'612.1
2018-Feb-10 09:30N 34°36' E 134°53'612.4
2018-Feb-10 09:00N 34°38' E 134°60'510.7
2018-Feb-10 08:30N 34°34' E 135°05'611.1
2018-Feb-10 08:00N 34°29' E 135°03'611.1
2018-Feb-10 07:30N 34°24' E 135°01'611.1
2018-Feb-10 07:00N 34°18' E 134°59'510.5
2018-Feb-10 06:30N 34°13' E 134°58'510.4
2018-Feb-10 06:00N 34°08' E 134°55'510.6
2018-Feb-10 05:30N 34°04' E 134°52'510.3
2018-Feb-10 05:00N 33°60' E 134°48'7 0.3
2018-Feb-09 08:00N 34°06' E 134°52'611.5
2018-Feb-09 07:30N 34°11' E 134°56'611.5
2018-Feb-09 07:00N 34°16' E 134°59'611.3
2018-Feb-09 06:30N 34°22' E 135°00'611.6
2018-Feb-09 06:00N 34°26' E 135°06'611.7
2018-Feb-09 05:30N 34°30' E 135°11'611.6
2018-Feb-09 05:00N 34°34' E 135°15'510.7
2018-Feb-09 04:30N 34°39' E 135°18'4 7.7
2018-Feb-09 04:00N 34°42' E 135°16'1 0.2
2018-Feb-08 22:30N 34°42' E 135°18'3 6.8
2018-Feb-08 22:00N 34°39' E 135°19'0 0.0
2018-Feb-08 20:00N 34°39' E 135°19'0 0.0
2018-Feb-08 19:30N 34°39' E 135°19'0 0.0
2018-Feb-08 19:00N 34°39' E 135°19'0 0.0
2018-Feb-08 17:30N 34°39' E 135°19'0 0.0
2018-Feb-08 15:30N 34°39' E 135°19'0 0.0
2018-Feb-08 15:00N 34°39' E 135°19'0 0.0
2018-Feb-08 14:30N 34°39' E 135°19'0 0.0
2018-Feb-08 14:00N 34°39' E 135°19'0 0.0
2018-Feb-08 13:30N 34°39' E 135°19'0 0.0
2018-Feb-08 11:30N 34°39' E 135°19'0 0.0
2018-Feb-08 11:00N 34°39' E 135°19'0 0.0
2018-Feb-08 10:00N 34°39' E 135°19'1 1.3
2018-Feb-08 09:00N 34°39' E 135°21'  

Dump ship's entire track history